Aérodrome :
LOGIN :

S'inscrire | Disclaimer

   EN    FR    IT 

 










Légende :    VFR   VFR Marginal   IFR   IFR Intensif   IFR Très Intensif
Visi : 
Plafond : 
>= 8 km
>= 3000ft
5 à 8 km
1000 à 3000 ft
1500m à 5 km
500 à 1000 ft
800 à 1500m
200 à 500 ft
< 800m
< 200 ft
Symboles :   Orages  Brouillard  Fortes neiges  Fortes précipitations  Vent > 20 kt
SIGMETs :   Divers  Orages  Givrage  Turbulence  Onde Orograph.  Cendres Volcan.







- Altitude de l'aérodrome : 239 ft
- Code IATA : VRN


LIPX - Villafranca Int. Verona

DERNIER METAR :
  • 221850Z 07009KT 050V110 9999 FEW030 SCT060 21/15 Q1016

METARs EXPIRÉS :
  • 221820Z 07010KT 040V100 9999 FEW030 SCT060 22/14 Q1016
  • 221750Z 07009KT 030V100 9999 FEW030 SCT060 22/14 Q1015
  • 221720Z 07011KT 040V100 9999 FEW070 23/14 Q1015
  • 221650Z 08011KT 050V110 9999 FEW030 SCT070 23/14 Q1014
  • 221620Z 08012KT 050V120 9999 FEW030 23/15 Q1014

TAF TAF LIPX
Valide du 22 à 18h jusqu'au 23 à 03h UTC


221700Z 2218/2303 08010KT 9999 SCT050
Pas de NOTAMs connus pour ce terrain.
1 SIGMET publié pour la FIR Milano (LIMM) :
 
Turbulence forte
LIMM SIGMET 6 VALID 221705/221905 LIIP
LIMM MILANO FIR SEV TURB FCST E OF LINE N4652 E01015 - N4311 E01420 FL220/420 MOV E WKN=



MET'MAP, la Météo Aéronautique d'un coup d'oeil ! - Copyright ORBIFLY Décembre 2007 - Disclaimer

ORBIFLY MET'MAP TEAM :

Programmation & Développement : Alexandra Zaïnal
Conception & Développement : Baudouin d'Aumeries
Co-Programmation & Développement : Marc-Olivier Méhu
Soutien technique & logistique : Manuel Goepfert

Contact : metmap@orbifly.com




SOURCES & CREDITS :

   NOAA